sensor_id;sensor_type;location;lat;lon;timestamp;P1;durP1;ratioP1;P2;durP2;ratioP2
49592;SDS011;35499;51.482;4.264;2023-08-31T00:01:41;11.77;;;3.93;;
49592;SDS011;35499;51.482;4.264;2023-08-31T00:04:07;6.90;;;3.87;;
49592;SDS011;35499;51.482;4.264;2023-08-31T00:06:39;8.02;;;3.67;;
49592;SDS011;35499;51.482;4.264;2023-08-31T00:09:04;7.88;;;4.07;;
49592;SDS011;35499;51.482;4.264;2023-08-31T00:11:34;8.43;;;4.40;;
49592;SDS011;35499;51.482;4.264;2023-08-31T00:14:00;8.50;;;4.75;;
49592;SDS011;35499;51.482;4.264;2023-08-31T00:16:25;9.05;;;4.80;;
49592;SDS011;35499;51.482;4.264;2023-08-31T00:18:51;10.05;;;5.00;;
49592;SDS011;35499;51.482;4.264;2023-08-31T00:21:17;9.55;;;5.25;;
49592;SDS011;35499;51.482;4.264;2023-08-31T00:23:42;10.10;;;5.00;;
49592;SDS011;35499;51.482;4.264;2023-08-31T00:26:08;8.90;;;5.32;;
49592;SDS011;35499;51.482;4.264;2023-08-31T00:28:33;10.63;;;5.50;;
49592;SDS011;35499;51.482;4.264;2023-08-31T00:31:00;10.60;;;6.25;;
49592;SDS011;35499;51.482;4.264;2023-08-31T00:33:28;10.65;;;5.25;;
49592;SDS011;35499;51.482;4.264;2023-08-31T00:35:54;12.15;;;6.05;;
49592;SDS011;35499;51.482;4.264;2023-08-31T00:38:21;13.02;;;5.40;;
49592;SDS011;35499;51.482;4.264;2023-08-31T00:40:46;13.90;;;6.25;;
49592;SDS011;35499;51.482;4.264;2023-08-31T00:43:12;14.45;;;6.03;;
49592;SDS011;35499;51.482;4.264;2023-08-31T00:45:40;13.40;;;6.15;;
49592;SDS011;35499;51.482;4.264;2023-08-31T00:48:05;9.45;;;5.47;;
49592;SDS011;35499;51.482;4.264;2023-08-31T00:50:31;10.57;;;6.05;;
49592;SDS011;35499;51.482;4.264;2023-08-31T00:52:56;9.60;;;5.93;;
49592;SDS011;35499;51.482;4.264;2023-08-31T00:55:22;10.43;;;5.50;;
49592;SDS011;35499;51.482;4.264;2023-08-31T00:57:48;9.30;;;5.65;;
49592;SDS011;35499;51.482;4.264;2023-08-31T01:00:13;12.82;;;5.68;;
49592;SDS011;35499;51.482;4.264;2023-08-31T01:10:43;12.82;;;6.15;;
49592;SDS011;35499;51.482;4.264;2023-08-31T01:13:21;11.02;;;4.93;;
49592;SDS011;35499;51.482;4.264;2023-08-31T01:15:51;10.73;;;5.43;;
49592;SDS011;35499;51.482;4.264;2023-08-31T01:18:19;11.15;;;5.93;;
49592;SDS011;35499;51.482;4.264;2023-08-31T01:23:52;13.90;;;6.97;;
49592;SDS011;35499;51.482;4.264;2023-08-31T01:26:19;13.98;;;6.47;;
49592;SDS011;35499;51.482;4.264;2023-08-31T01:28:46;12.63;;;6.75;;
49592;SDS011;35499;51.482;4.264;2023-08-31T01:31:12;15.00;;;6.80;;
49592;SDS011;35499;51.482;4.264;2023-08-31T01:33:37;13.53;;;6.17;;
49592;SDS011;35499;51.482;4.264;2023-08-31T01:36:04;15.57;;;6.80;;
49592;SDS011;35499;51.482;4.264;2023-08-31T01:38:37;9.55;;;5.75;;
49592;SDS011;35499;51.482;4.264;2023-08-31T01:41:06;16.70;;;6.55;;
49592;SDS011;35499;51.482;4.264;2023-08-31T01:43:35;15.40;;;6.63;;
49592;SDS011;35499;51.482;4.264;2023-08-31T01:46:01;14.75;;;7.07;;
49592;SDS011;35499;51.482;4.264;2023-08-31T01:48:27;14.45;;;6.55;;
49592;SDS011;35499;51.482;4.264;2023-08-31T01:50:53;18.05;;;7.60;;
49592;SDS011;35499;51.482;4.264;2023-08-31T01:53:18;14.37;;;7.30;;
49592;SDS011;35499;51.482;4.264;2023-08-31T01:55:43;16.27;;;7.83;;
49592;SDS011;35499;51.482;4.264;2023-08-31T01:58:09;14.10;;;6.77;;
49592;SDS011;35499;51.482;4.264;2023-08-31T02:00:34;12.80;;;7.77;;
49592;SDS011;35499;51.482;4.264;2023-08-31T02:03:00;14.23;;;7.22;;
49592;SDS011;35499;51.482;4.264;2023-08-31T02:05:26;14.48;;;7.63;;
49592;SDS011;35499;51.482;4.264;2023-08-31T02:07:52;16.58;;;8.02;;
49592;SDS011;35499;51.482;4.264;2023-08-31T02:10:17;11.68;;;6.47;;
49592;SDS011;35499;51.482;4.264;2023-08-31T02:12:43;13.35;;;6.85;;
49592;SDS011;35499;51.482;4.264;2023-08-31T02:15:08;18.93;;;6.50;;
49592;SDS011;35499;51.482;4.264;2023-08-31T02:17:34;16.33;;;6.63;;
49592;SDS011;35499;51.482;4.264;2023-08-31T02:20:00;12.48;;;6.38;;
49592;SDS011;35499;51.482;4.264;2023-08-31T02:22:26;16.35;;;6.63;;
49592;SDS011;35499;51.482;4.264;2023-08-31T02:24:52;12.20;;;7.17;;
49592;SDS011;35499;51.482;4.264;2023-08-31T02:27:17;14.70;;;7.03;;
49592;SDS011;35499;51.482;4.264;2023-08-31T02:29:43;12.55;;;5.65;;
49592;SDS011;35499;51.482;4.264;2023-08-31T02:32:08;14.93;;;6.70;;
49592;SDS011;35499;51.482;4.264;2023-08-31T02:34:34;13.73;;;5.65;;
49592;SDS011;35499;51.482;4.264;2023-08-31T02:36:59;14.27;;;5.63;;
49592;SDS011;35499;51.482;4.264;2023-08-31T02:39:24;12.80;;;5.77;;
49592;SDS011;35499;51.482;4.264;2023-08-31T02:41:49;11.43;;;5.40;;
49592;SDS011;35499;51.482;4.264;2023-08-31T02:44:15;14.07;;;5.70;;
49592;SDS011;35499;51.482;4.264;2023-08-31T02:46:40;11.90;;;4.90;;
49592;SDS011;35499;51.482;4.264;2023-08-31T02:49:05;11.07;;;5.57;;
49592;SDS011;35499;51.482;4.264;2023-08-31T02:51:30;11.73;;;5.00;;
49592;SDS011;35499;51.482;4.264;2023-08-31T02:53:56;8.17;;;4.83;;
49592;SDS011;35499;51.482;4.264;2023-08-31T02:56:21;5.80;;;3.63;;
49592;SDS011;35499;51.482;4.264;2023-08-31T02:58:46;10.37;;;4.00;;
49592;SDS011;35499;51.482;4.264;2023-08-31T03:01:14;13.27;;;4.00;;
49592;SDS011;35499;51.482;4.264;2023-08-31T03:03:40;6.95;;;3.63;;
49592;SDS011;35499;51.482;4.264;2023-08-31T03:06:06;7.35;;;3.85;;
49592;SDS011;35499;51.482;4.264;2023-08-31T03:08:35;6.97;;;3.25;;
49592;SDS011;35499;51.482;4.264;2023-08-31T03:11:02;6.70;;;3.42;;
49592;SDS011;35499;51.482;4.264;2023-08-31T03:13:28;8.60;;;3.60;;
49592;SDS011;35499;51.482;4.264;2023-08-31T03:15:53;10.25;;;4.13;;
49592;SDS011;35499;51.482;4.264;2023-08-31T03:18:18;7.97;;;3.77;;
49592;SDS011;35499;51.482;4.264;2023-08-31T03:20:44;7.68;;;3.38;;
49592;SDS011;35499;51.482;4.264;2023-08-31T03:23:09;6.43;;;4.07;;
49592;SDS011;35499;51.482;4.264;2023-08-31T03:25:36;9.68;;;4.05;;
49592;SDS011;35499;51.482;4.264;2023-08-31T03:28:01;8.65;;;3.28;;
49592;SDS011;35499;51.482;4.264;2023-08-31T03:30:27;10.02;;;4.20;;
49592;SDS011;35499;51.482;4.264;2023-08-31T03:32:52;8.30;;;4.40;;
49592;SDS011;35499;51.482;4.264;2023-08-31T03:35:18;10.65;;;4.03;;
49592;SDS011;35499;51.482;4.264;2023-08-31T03:37:46;10.90;;;4.00;;
49592;SDS011;35499;51.482;4.264;2023-08-31T03:40:12;7.20;;;3.38;;
49592;SDS011;35499;51.482;4.264;2023-08-31T03:42:37;10.60;;;3.73;;
49592;SDS011;35499;51.482;4.264;2023-08-31T03:45:03;8.80;;;4.43;;
49592;SDS011;35499;51.482;4.264;2023-08-31T03:47:29;11.25;;;4.00;;
49592;SDS011;35499;51.482;4.264;2023-08-31T03:49:55;9.35;;;5.00;;
49592;SDS011;35499;51.482;4.264;2023-08-31T03:52:20;9.23;;;4.35;;
49592;SDS011;35499;51.482;4.264;2023-08-31T03:54:46;10.20;;;4.87;;
49592;SDS011;35499;51.482;4.264;2023-08-31T03:57:11;11.15;;;4.88;;
49592;SDS011;35499;51.482;4.264;2023-08-31T03:59:36;12.27;;;5.13;;
49592;SDS011;35499;51.482;4.264;2023-08-31T04:02:02;8.57;;;4.90;;
49592;SDS011;35499;51.482;4.264;2023-08-31T04:04:27;11.63;;;4.80;;
49592;SDS011;35499;51.482;4.264;2023-08-31T04:06:52;9.87;;;5.07;;
49592;SDS011;35499;51.482;4.264;2023-08-31T04:09:18;8.97;;;4.90;;
49592;SDS011;35499;51.482;4.264;2023-08-31T04:11:44;9.20;;;5.20;;
49592;SDS011;35499;51.482;4.264;2023-08-31T04:14:09;12.10;;;5.60;;
49592;SDS011;35499;51.482;4.264;2023-08-31T04:16:34;12.90;;;6.10;;
49592;SDS011;35499;51.482;4.264;2023-08-31T04:18:59;10.63;;;6.03;;
49592;SDS011;35499;51.482;4.264;2023-08-31T04:21:25;11.67;;;5.57;;
49592;SDS011;35499;51.482;4.264;2023-08-31T04:23:50;15.20;;;6.27;;
49592;SDS011;35499;51.482;4.264;2023-08-31T04:26:15;13.10;;;5.83;;
49592;SDS011;35499;51.482;4.264;2023-08-31T04:28:42;13.00;;;6.65;;
49592;SDS011;35499;51.482;4.264;2023-08-31T04:31:08;13.15;;;6.05;;
49592;SDS011;35499;51.482;4.264;2023-08-31T04:33:34;13.65;;;5.97;;
49592;SDS011;35499;51.482;4.264;2023-08-31T04:36:00;14.02;;;6.70;;
49592;SDS011;35499;51.482;4.264;2023-08-31T04:38:25;13.90;;;6.30;;
49592;SDS011;35499;51.482;4.264;2023-08-31T04:40:50;11.97;;;6.30;;
49592;SDS011;35499;51.482;4.264;2023-08-31T04:43:16;9.60;;;5.35;;
49592;SDS011;35499;51.482;4.264;2023-08-31T04:45:42;12.40;;;6.05;;
49592;SDS011;35499;51.482;4.264;2023-08-31T04:48:07;12.75;;;6.00;;
49592;SDS011;35499;51.482;4.264;2023-08-31T04:50:32;13.17;;;6.23;;
49592;SDS011;35499;51.482;4.264;2023-08-31T04:52:58;14.68;;;6.40;;
49592;SDS011;35499;51.482;4.264;2023-08-31T04:55:23;15.67;;;6.13;;
49592;SDS011;35499;51.482;4.264;2023-08-31T04:57:48;15.87;;;6.50;;
49592;SDS011;35499;51.482;4.264;2023-08-31T05:00:14;12.80;;;6.47;;
49592;SDS011;35499;51.482;4.264;2023-08-31T05:02:39;13.13;;;6.47;;
49592;SDS011;35499;51.482;4.264;2023-08-31T05:05:05;12.93;;;6.40;;
49592;SDS011;35499;51.482;4.264;2023-08-31T05:07:30;11.93;;;6.60;;
49592;SDS011;35499;51.482;4.264;2023-08-31T05:09:56;13.37;;;6.33;;
49592;SDS011;35499;51.482;4.264;2023-08-31T05:12:21;11.23;;;5.93;;
49592;SDS011;35499;51.482;4.264;2023-08-31T05:14:47;14.98;;;6.72;;
49592;SDS011;35499;51.482;4.264;2023-08-31T05:17:12;15.00;;;6.13;;
49592;SDS011;35499;51.482;4.264;2023-08-31T05:19:37;18.97;;;7.47;;
49592;SDS011;35499;51.482;4.264;2023-08-31T05:22:03;13.93;;;6.50;;
49592;SDS011;35499;51.482;4.264;2023-08-31T05:24:28;11.07;;;5.38;;
49592;SDS011;35499;51.482;4.264;2023-08-31T05:26:53;14.30;;;6.93;;
49592;SDS011;35499;51.482;4.264;2023-08-31T05:29:19;14.43;;;6.32;;
49592;SDS011;35499;51.482;4.264;2023-08-31T05:31:44;12.77;;;5.53;;
49592;SDS011;35499;51.482;4.264;2023-08-31T05:34:09;14.10;;;6.67;;
49592;SDS011;35499;51.482;4.264;2023-08-31T05:36:35;11.13;;;5.93;;
49592;SDS011;35499;51.482;4.264;2023-08-31T05:39:01;16.52;;;6.65;;
49592;SDS011;35499;51.482;4.264;2023-08-31T05:41:27;11.63;;;5.88;;
49592;SDS011;35499;51.482;4.264;2023-08-31T05:43:52;14.38;;;5.35;;
49592;SDS011;35499;51.482;4.264;2023-08-31T05:46:17;9.50;;;4.78;;
49592;SDS011;35499;51.482;4.264;2023-08-31T05:48:43;9.63;;;4.90;;
49592;SDS011;35499;51.482;4.264;2023-08-31T05:51:08;12.43;;;4.57;;
49592;SDS011;35499;51.482;4.264;2023-08-31T05:53:34;7.97;;;4.10;;
49592;SDS011;35499;51.482;4.264;2023-08-31T05:55:59;12.00;;;4.13;;
49592;SDS011;35499;51.482;4.264;2023-08-31T05:58:32;8.88;;;4.10;;
49592;SDS011;35499;51.482;4.264;2023-08-31T06:00:59;5.88;;;3.22;;
49592;SDS011;35499;51.482;4.264;2023-08-31T06:03:25;9.05;;;3.95;;
49592;SDS011;35499;51.482;4.264;2023-08-31T06:12:20;7.82;;;2.90;;
49592;SDS011;35499;51.482;4.264;2023-08-31T06:14:45;9.38;;;3.28;;
49592;SDS011;35499;51.482;4.264;2023-08-31T06:17:10;8.67;;;3.03;;
49592;SDS011;35499;51.482;4.264;2023-08-31T06:19:38;9.90;;;3.88;;
49592;SDS011;35499;51.482;4.264;2023-08-31T06:22:03;5.28;;;2.88;;
49592;SDS011;35499;51.482;4.264;2023-08-31T06:24:29;6.43;;;2.80;;
49592;SDS011;35499;51.482;4.264;2023-08-31T06:26:54;12.40;;;3.33;;
49592;SDS011;35499;51.482;4.264;2023-08-31T06:29:21;6.13;;;3.05;;
49592;SDS011;35499;51.482;4.264;2023-08-31T06:31:47;7.78;;;3.30;;
49592;SDS011;35499;51.482;4.264;2023-08-31T06:34:12;8.97;;;2.80;;
49592;SDS011;35499;51.482;4.264;2023-08-31T06:36:37;6.07;;;2.63;;
49592;SDS011;35499;51.482;4.264;2023-08-31T06:39:03;10.35;;;2.85;;
49592;SDS011;35499;51.482;4.264;2023-08-31T06:41:29;4.90;;;2.42;;
49592;SDS011;35499;51.482;4.264;2023-08-31T06:43:55;6.47;;;2.60;;
49592;SDS011;35499;51.482;4.264;2023-08-31T06:46:20;8.18;;;2.80;;
49592;SDS011;35499;51.482;4.264;2023-08-31T06:48:46;7.32;;;3.10;;
49592;SDS011;35499;51.482;4.264;2023-08-31T06:51:11;8.48;;;3.75;;
49592;SDS011;35499;51.482;4.264;2023-08-31T06:53:37;7.13;;;2.97;;
49592;SDS011;35499;51.482;4.264;2023-08-31T06:56:02;4.83;;;2.50;;
49592;SDS011;35499;51.482;4.264;2023-08-31T06:58:27;7.45;;;2.92;;
49592;SDS011;35499;51.482;4.264;2023-08-31T07:00:53;6.37;;;2.77;;
49592;SDS011;35499;51.482;4.264;2023-08-31T07:03:18;5.97;;;3.10;;
49592;SDS011;35499;51.482;4.264;2023-08-31T07:05:43;7.63;;;3.03;;
49592;SDS011;35499;51.482;4.264;2023-08-31T07:08:09;5.37;;;2.80;;
49592;SDS011;35499;51.482;4.264;2023-08-31T07:10:34;8.20;;;2.60;;
49592;SDS011;35499;51.482;4.264;2023-08-31T07:13:03;6.38;;;3.05;;
49592;SDS011;35499;51.482;4.264;2023-08-31T07:15:29;5.80;;;2.63;;
49592;SDS011;35499;51.482;4.264;2023-08-31T07:17:55;7.45;;;3.13;;
49592;SDS011;35499;51.482;4.264;2023-08-31T07:20:20;6.17;;;2.23;;
49592;SDS011;35499;51.482;4.264;2023-08-31T07:22:45;6.20;;;2.70;;
49592;SDS011;35499;51.482;4.264;2023-08-31T07:25:11;5.50;;;2.33;;
49592;SDS011;35499;51.482;4.264;2023-08-31T07:27:37;7.50;;;2.72;;
49592;SDS011;35499;51.482;4.264;2023-08-31T07:30:02;6.88;;;2.63;;
49592;SDS011;35499;51.482;4.264;2023-08-31T07:32:29;6.28;;;2.72;;
49592;SDS011;35499;51.482;4.264;2023-08-31T07:34:54;7.13;;;2.65;;
49592;SDS011;35499;51.482;4.264;2023-08-31T07:37:19;6.23;;;3.53;;
49592;SDS011;35499;51.482;4.264;2023-08-31T07:39:45;7.93;;;2.83;;
49592;SDS011;35499;51.482;4.264;2023-08-31T07:42:11;6.75;;;2.70;;
49592;SDS011;35499;51.482;4.264;2023-08-31T07:44:36;6.82;;;2.35;;
49592;SDS011;35499;51.482;4.264;2023-08-31T07:47:01;6.30;;;2.83;;
49592;SDS011;35499;51.482;4.264;2023-08-31T07:49:27;6.28;;;2.85;;
49592;SDS011;35499;51.482;4.264;2023-08-31T07:51:53;6.35;;;2.33;;
49592;SDS011;35499;51.482;4.264;2023-08-31T07:54:21;9.27;;;2.70;;
49592;SDS011;35499;51.482;4.264;2023-08-31T07:56:47;6.10;;;3.00;;
49592;SDS011;35499;51.482;4.264;2023-08-31T07:59:12;5.82;;;2.88;;
49592;SDS011;35499;51.482;4.264;2023-08-31T08:01:38;6.60;;;2.10;;
49592;SDS011;35499;51.482;4.264;2023-08-31T08:04:03;4.90;;;2.40;;
49592;SDS011;35499;51.482;4.264;2023-08-31T08:06:29;7.85;;;2.25;;
49592;SDS011;35499;51.482;4.264;2023-08-31T08:08:54;7.47;;;2.57;;
49592;SDS011;35499;51.482;4.264;2023-08-31T08:11:19;5.17;;;2.03;;
49592;SDS011;35499;51.482;4.264;2023-08-31T08:13:44;6.30;;;2.40;;
49592;SDS011;35499;51.482;4.264;2023-08-31T08:16:10;5.72;;;2.30;;
49592;SDS011;35499;51.482;4.264;2023-08-31T08:18:35;6.23;;;2.33;;
49592;SDS011;35499;51.482;4.264;2023-08-31T08:21:00;5.00;;;2.22;;
49592;SDS011;35499;51.482;4.264;2023-08-31T08:23:26;6.13;;;2.53;;
49592;SDS011;35499;51.482;4.264;2023-08-31T08:25:51;5.78;;;2.00;;
49592;SDS011;35499;51.482;4.264;2023-08-31T08:28:16;4.77;;;2.00;;
49592;SDS011;35499;51.482;4.264;2023-08-31T08:30:42;5.53;;;2.27;;
49592;SDS011;35499;51.482;4.264;2023-08-31T08:33:08;5.33;;;2.03;;
49592;SDS011;35499;51.482;4.264;2023-08-31T08:35:33;4.38;;;2.25;;
49592;SDS011;35499;51.482;4.264;2023-08-31T08:37:59;6.97;;;2.70;;
49592;SDS011;35499;51.482;4.264;2023-08-31T08:40:24;6.53;;;1.80;;
49592;SDS011;35499;51.482;4.264;2023-08-31T08:42:50;6.27;;;1.83;;
49592;SDS011;35499;51.482;4.264;2023-08-31T08:45:18;5.00;;;1.58;;
49592;SDS011;35499;51.482;4.264;2023-08-31T08:47:49;4.72;;;1.70;;
49592;SDS011;35499;51.482;4.264;2023-08-31T08:50:16;4.90;;;1.90;;
49592;SDS011;35499;51.482;4.264;2023-08-31T08:52:41;6.80;;;2.10;;
49592;SDS011;35499;51.482;4.264;2023-08-31T08:55:08;6.15;;;2.10;;
49592;SDS011;35499;51.482;4.264;2023-08-31T08:57:34;8.25;;;1.88;;
49592;SDS011;35499;51.482;4.264;2023-08-31T09:04:35;5.13;;;1.52;;
49592;SDS011;35499;51.482;4.264;2023-08-31T09:07:00;4.22;;;1.92;;
49592;SDS011;35499;51.482;4.264;2023-08-31T09:09:25;5.27;;;2.37;;
49592;SDS011;35499;51.482;4.264;2023-08-31T09:11:51;4.13;;;1.38;;
49592;SDS011;35499;51.482;4.264;2023-08-31T09:14:17;4.88;;;1.67;;
49592;SDS011;35499;51.482;4.264;2023-08-31T09:16:44;4.90;;;1.42;;
49592;SDS011;35499;51.482;4.264;2023-08-31T09:19:21;5.28;;;1.70;;
49592;SDS011;35499;51.482;4.264;2023-08-31T09:21:48;5.03;;;1.45;;
49592;SDS011;35499;51.482;4.264;2023-08-31T09:24:14;4.18;;;1.63;;
49592;SDS011;35499;51.482;4.264;2023-08-31T09:26:51;5.28;;;1.88;;
49592;SDS011;35499;51.482;4.264;2023-08-31T09:29:18;6.55;;;1.95;;
49592;SDS011;35499;51.482;4.264;2023-08-31T09:31:44;3.90;;;1.20;;
49592;SDS011;35499;51.482;4.264;2023-08-31T09:36:36;5.97;;;1.25;;
49592;SDS011;35499;51.482;4.264;2023-08-31T09:39:02;4.53;;;1.48;;
49592;SDS011;35499;51.482;4.264;2023-08-31T09:41:27;5.25;;;0.95;;
49592;SDS011;35499;51.482;4.264;2023-08-31T09:46:18;2.90;;;0.60;;
49592;SDS011;35499;51.482;4.264;2023-08-31T09:48:45;4.22;;;0.95;;
49592;SDS011;35499;51.482;4.264;2023-08-31T09:51:12;6.40;;;1.23;;
49592;SDS011;35499;51.482;4.264;2023-08-31T09:53:39;4.90;;;1.20;;
49592;SDS011;35499;51.482;4.264;2023-08-31T09:56:07;2.40;;;0.60;;
49592;SDS011;35499;51.482;4.264;2023-08-31T09:58:32;5.05;;;1.05;;
49592;SDS011;35499;51.482;4.264;2023-08-31T10:00:58;3.08;;;1.33;;
49592;SDS011;35499;51.482;4.264;2023-08-31T10:03:24;3.35;;;0.93;;
49592;SDS011;35499;51.482;4.264;2023-08-31T10:05:51;3.55;;;1.17;;
49592;SDS011;35499;51.482;4.264;2023-08-31T10:08:17;6.33;;;1.37;;
49592;SDS011;35499;51.482;4.264;2023-08-31T10:10:43;4.00;;;1.13;;
49592;SDS011;35499;51.482;4.264;2023-08-31T10:13:09;6.15;;;1.13;;
49592;SDS011;35499;51.482;4.264;2023-08-31T10:15:36;3.10;;;1.30;;
49592;SDS011;35499;51.482;4.264;2023-08-31T10:18:02;4.32;;;1.40;;
49592;SDS011;35499;51.482;4.264;2023-08-31T10:20:31;6.53;;;1.40;;
49592;SDS011;35499;51.482;4.264;2023-08-31T10:22:58;3.10;;;1.05;;
49592;SDS011;35499;51.482;4.264;2023-08-31T10:27:51;4.53;;;1.27;;
49592;SDS011;35499;51.482;4.264;2023-08-31T10:38:16;4.70;;;1.20;;
49592;SDS011;35499;51.482;4.264;2023-08-31T10:40:59;4.22;;;1.30;;
49592;SDS011;35499;51.482;4.264;2023-08-31T10:43:27;5.03;;;1.33;;
49592;SDS011;35499;51.482;4.264;2023-08-31T10:48:17;4.53;;;0.90;;
49592;SDS011;35499;51.482;4.264;2023-08-31T10:53:09;4.88;;;1.33;;
49592;SDS011;35499;51.482;4.264;2023-08-31T10:55:54;5.18;;;1.80;;
49592;SDS011;35499;51.482;4.264;2023-08-31T10:58:20;6.10;;;1.70;;
49592;SDS011;35499;51.482;4.264;2023-08-31T11:00:46;5.23;;;1.80;;
49592;SDS011;35499;51.482;4.264;2023-08-31T11:03:15;3.67;;;1.77;;
49592;SDS011;35499;51.482;4.264;2023-08-31T11:05:52;3.17;;;1.60;;
49592;SDS011;35499;51.482;4.264;2023-08-31T11:08:21;5.40;;;1.67;;
49592;SDS011;35499;51.482;4.264;2023-08-31T11:10:51;4.88;;;1.40;;
49592;SDS011;35499;51.482;4.264;2023-08-31T11:13:20;5.22;;;1.92;;
49592;SDS011;35499;51.482;4.264;2023-08-31T11:15:47;7.20;;;1.85;;
49592;SDS011;35499;51.482;4.264;2023-08-31T11:18:13;5.40;;;1.90;;
49592;SDS011;35499;51.482;4.264;2023-08-31T11:20:43;6.57;;;1.50;;
49592;SDS011;35499;51.482;4.264;2023-08-31T11:25:34;5.05;;;1.45;;
49592;SDS011;35499;51.482;4.264;2023-08-31T11:28:00;7.65;;;1.50;;
49592;SDS011;35499;51.482;4.264;2023-08-31T11:30:30;5.57;;;1.80;;
49592;SDS011;35499;51.482;4.264;2023-08-31T11:32:56;4.38;;;2.10;;
49592;SDS011;35499;51.482;4.264;2023-08-31T11:35:22;5.30;;;1.98;;
49592;SDS011;35499;51.482;4.264;2023-08-31T11:37:51;6.18;;;2.28;;
49592;SDS011;35499;51.482;4.264;2023-08-31T11:40:17;5.90;;;2.78;;
49592;SDS011;35499;51.482;4.264;2023-08-31T11:42:43;2.75;;;1.70;;
49592;SDS011;35499;51.482;4.264;2023-08-31T11:45:10;4.65;;;1.70;;
49592;SDS011;35499;51.482;4.264;2023-08-31T11:47:37;4.43;;;2.03;;
49592;SDS011;35499;51.482;4.264;2023-08-31T11:50:04;4.00;;;2.20;;
49592;SDS011;35499;51.482;4.264;2023-08-31T11:52:31;3.53;;;1.70;;
49592;SDS011;35499;51.482;4.264;2023-08-31T11:54:56;6.25;;;2.10;;
49592;SDS011;35499;51.482;4.264;2023-08-31T11:57:25;5.50;;;2.40;;
49592;SDS011;35499;51.482;4.264;2023-08-31T11:59:51;4.63;;;1.75;;
49592;SDS011;35499;51.482;4.264;2023-08-31T12:02:18;4.80;;;2.05;;
49592;SDS011;35499;51.482;4.264;2023-08-31T12:04:44;3.53;;;1.33;;
49592;SDS011;35499;51.482;4.264;2023-08-31T12:07:10;4.25;;;1.33;;
49592;SDS011;35499;51.482;4.264;2023-08-31T12:09:36;3.80;;;1.60;;
49592;SDS011;35499;51.482;4.264;2023-08-31T12:12:02;4.57;;;1.90;;
49592;SDS011;35499;51.482;4.264;2023-08-31T12:14:29;4.63;;;1.80;;
49592;SDS011;35499;51.482;4.264;2023-08-31T12:17:02;4.38;;;1.92;;
49592;SDS011;35499;51.482;4.264;2023-08-31T12:19:32;5.00;;;1.85;;
49592;SDS011;35499;51.482;4.264;2023-08-31T12:21:58;4.97;;;2.38;;
49592;SDS011;35499;51.482;4.264;2023-08-31T12:24:24;4.75;;;1.80;;
49592;SDS011;35499;51.482;4.264;2023-08-31T12:26:50;3.45;;;1.55;;
49592;SDS011;35499;51.482;4.264;2023-08-31T12:29:16;5.82;;;1.80;;
49592;SDS011;35499;51.482;4.264;2023-08-31T12:31:42;3.50;;;1.60;;
49592;SDS011;35499;51.482;4.264;2023-08-31T12:34:08;4.10;;;1.77;;
49592;SDS011;35499;51.482;4.264;2023-08-31T12:36:34;8.30;;;2.85;;
49592;SDS011;35499;51.482;4.264;2023-08-31T12:39:02;5.18;;;2.20;;
49592;SDS011;35499;51.482;4.264;2023-08-31T12:41:37;4.60;;;1.80;;
49592;SDS011;35499;51.482;4.264;2023-08-31T12:44:03;4.68;;;1.63;;
49592;SDS011;35499;51.482;4.264;2023-08-31T12:46:29;6.13;;;1.80;;
49592;SDS011;35499;51.482;4.264;2023-08-31T12:48:56;5.13;;;2.35;;
49592;SDS011;35499;51.482;4.264;2023-08-31T12:51:21;5.57;;;1.90;;
49592;SDS011;35499;51.482;4.264;2023-08-31T12:53:47;4.82;;;1.33;;
49592;SDS011;35499;51.482;4.264;2023-08-31T12:56:13;5.45;;;2.08;;
49592;SDS011;35499;51.482;4.264;2023-08-31T12:58:38;4.97;;;1.60;;
49592;SDS011;35499;51.482;4.264;2023-08-31T13:01:04;5.20;;;1.50;;
49592;SDS011;35499;51.482;4.264;2023-08-31T13:03:30;3.28;;;1.35;;
49592;SDS011;35499;51.482;4.264;2023-08-31T13:05:55;4.20;;;1.50;;
49592;SDS011;35499;51.482;4.264;2023-08-31T13:08:21;6.45;;;1.35;;
49592;SDS011;35499;51.482;4.264;2023-08-31T13:10:52;5.50;;;1.80;;
49592;SDS011;35499;51.482;4.264;2023-08-31T13:13:18;4.82;;;1.23;;
49592;SDS011;35499;51.482;4.264;2023-08-31T13:15:45;3.60;;;1.20;;
49592;SDS011;35499;51.482;4.264;2023-08-31T13:18:11;3.88;;;1.10;;
49592;SDS011;35499;51.482;4.264;2023-08-31T13:20:36;5.97;;;1.93;;
49592;SDS011;35499;51.482;4.264;2023-08-31T13:23:02;6.00;;;1.63;;
49592;SDS011;35499;51.482;4.264;2023-08-31T13:25:28;7.03;;;1.90;;
49592;SDS011;35499;51.482;4.264;2023-08-31T13:27:53;2.97;;;0.80;;
49592;SDS011;35499;51.482;4.264;2023-08-31T13:30:18;3.97;;;1.37;;
49592;SDS011;35499;51.482;4.264;2023-08-31T13:32:44;3.65;;;1.20;;
49592;SDS011;35499;51.482;4.264;2023-08-31T13:35:09;3.53;;;1.13;;
49592;SDS011;35499;51.482;4.264;2023-08-31T13:37:34;4.80;;;1.20;;
49592;SDS011;35499;51.482;4.264;2023-08-31T13:40:00;5.20;;;1.17;;
49592;SDS011;35499;51.482;4.264;2023-08-31T13:42:26;4.57;;;1.08;;
49592;SDS011;35499;51.482;4.264;2023-08-31T13:44:51;3.85;;;1.02;;
49592;SDS011;35499;51.482;4.264;2023-08-31T13:47:17;3.53;;;1.03;;
49592;SDS011;35499;51.482;4.264;2023-08-31T13:49:42;6.93;;;1.40;;
49592;SDS011;35499;51.482;4.264;2023-08-31T13:52:07;3.10;;;1.10;;
49592;SDS011;35499;51.482;4.264;2023-08-31T13:54:34;3.17;;;1.20;;
49592;SDS011;35499;51.482;4.264;2023-08-31T13:56:59;3.70;;;1.10;;
49592;SDS011;35499;51.482;4.264;2023-08-31T13:59:27;3.05;;;0.95;;
49592;SDS011;35499;51.482;4.264;2023-08-31T14:01:53;3.00;;;1.10;;
49592;SDS011;35499;51.482;4.264;2023-08-31T14:04:21;2.17;;;0.80;;
49592;SDS011;35499;51.482;4.264;2023-08-31T14:06:47;3.47;;;1.13;;
49592;SDS011;35499;51.482;4.264;2023-08-31T14:11:38;3.00;;;1.00;;
49592;SDS011;35499;51.482;4.264;2023-08-31T14:14:04;6.57;;;1.50;;
49592;SDS011;35499;51.482;4.264;2023-08-31T14:16:39;3.80;;;1.52;;
49592;SDS011;35499;51.482;4.264;2023-08-31T14:19:04;5.60;;;1.50;;
49592;SDS011;35499;51.482;4.264;2023-08-31T14:21:30;3.78;;;1.52;;
49592;SDS011;35499;51.482;4.264;2023-08-31T14:23:56;3.50;;;1.30;;
49592;SDS011;35499;51.482;4.264;2023-08-31T14:26:24;4.18;;;1.50;;
49592;SDS011;35499;51.482;4.264;2023-08-31T14:28:50;4.63;;;1.90;;
49592;SDS011;35499;51.482;4.264;2023-08-31T14:31:16;3.38;;;1.33;;
49592;SDS011;35499;51.482;4.264;2023-08-31T14:33:42;3.53;;;1.70;;
49592;SDS011;35499;51.482;4.264;2023-08-31T14:36:07;7.27;;;1.50;;
49592;SDS011;35499;51.482;4.264;2023-08-31T14:38:32;5.17;;;1.73;;
49592;SDS011;35499;51.482;4.264;2023-08-31T14:40:57;6.43;;;1.73;;
49592;SDS011;35499;51.482;4.264;2023-08-31T14:43:23;5.10;;;1.83;;
49592;SDS011;35499;51.482;4.264;2023-08-31T14:45:48;6.60;;;1.73;;
49592;SDS011;35499;51.482;4.264;2023-08-31T14:48:14;4.80;;;1.33;;
49592;SDS011;35499;51.482;4.264;2023-08-31T14:50:45;4.68;;;1.38;;
49592;SDS011;35499;51.482;4.264;2023-08-31T14:53:10;4.25;;;1.27;;
49592;SDS011;35499;51.482;4.264;2023-08-31T14:55:36;4.30;;;1.20;;
49592;SDS011;35499;51.482;4.264;2023-08-31T14:58:02;6.43;;;1.63;;
49592;SDS011;35499;51.482;4.264;2023-08-31T15:00:28;3.90;;;1.50;;
49592;SDS011;35499;51.482;4.264;2023-08-31T15:02:53;3.83;;;1.23;;
49592;SDS011;35499;51.482;4.264;2023-08-31T15:05:19;5.57;;;1.27;;
49592;SDS011;35499;51.482;4.264;2023-08-31T15:07:44;5.73;;;1.33;;
49592;SDS011;35499;51.482;4.264;2023-08-31T15:10:10;3.78;;;1.05;;
49592;SDS011;35499;51.482;4.264;2023-08-31T15:12:35;4.80;;;1.23;;
49592;SDS011;35499;51.482;4.264;2023-08-31T15:15:01;5.68;;;2.30;;
49592;SDS011;35499;51.482;4.264;2023-08-31T15:17:28;3.20;;;1.25;;
49592;SDS011;35499;51.482;4.264;2023-08-31T15:19:53;5.63;;;1.23;;
49592;SDS011;35499;51.482;4.264;2023-08-31T15:22:18;4.78;;;1.05;;
49592;SDS011;35499;51.482;4.264;2023-08-31T15:24:45;6.68;;;1.13;;